Almalyk, Uzbekistan
Current Conditions -  °F | °C
As of 6:30 PM on Thursday 30 Oct 2014 (Local Time) from UTTT Reporting Station
Smoke Smoke  
Wind Chill: 44°   Ceiling: Unl
Heat Index: 46°   Visibility: 2.5mi
Dew Point: 32°   Wind: 4mph
Humidity: 57%   Direction: 300°WNW
Pressure: 30.45"   Gusts: NA
Location:  40.84°N, 69.58°E
Report Text: UTTT 301330Z 30002MPS 4000 FU NSC 08/M00 Q1031 R08R/CLRD70NOSIG
Loading
Personal Weather Stations






























Interactive Weather Map
Tropical Storm Tracking
New forecast layout! Learn more

10-Day Weather Forecast

Advertisements
Track Severe Weather on mobile